sensor_id;sensor_type;location;lat;lon;timestamp;P1;durP1;ratioP1;P2;durP2;ratioP2
80891;SDS011;70343;51.530;5.050;2024-03-17T00:01:05;9.20;;;5.50;;
80891;SDS011;70343;51.530;5.050;2024-03-17T00:03:30;8.00;;;5.43;;
80891;SDS011;70343;51.530;5.050;2024-03-17T00:06:00;8.20;;;5.63;;
80891;SDS011;70343;51.530;5.050;2024-03-17T00:08:26;7.40;;;5.13;;
80891;SDS011;70343;51.530;5.050;2024-03-17T00:10:52;12.63;;;7.03;;
80891;SDS011;70343;51.530;5.050;2024-03-17T00:13:21;10.15;;;6.10;;
80891;SDS011;70343;51.530;5.050;2024-03-17T00:15:47;9.35;;;5.90;;
80891;SDS011;70343;51.530;5.050;2024-03-17T00:18:13;13.13;;;7.10;;
80891;SDS011;70343;51.530;5.050;2024-03-17T00:20:39;7.88;;;5.70;;
80891;SDS011;70343;51.530;5.050;2024-03-17T00:23:05;8.48;;;4.45;;
80891;SDS011;70343;51.530;5.050;2024-03-17T00:25:34;9.55;;;5.25;;
80891;SDS011;70343;51.530;5.050;2024-03-17T00:28:03;9.23;;;5.30;;
80891;SDS011;70343;51.530;5.050;2024-03-17T00:30:29;10.95;;;5.25;;
80891;SDS011;70343;51.530;5.050;2024-03-17T00:32:56;8.90;;;4.90;;
80891;SDS011;70343;51.530;5.050;2024-03-17T00:35:23;9.88;;;5.50;;
80891;SDS011;70343;51.530;5.050;2024-03-17T00:37:50;7.70;;;4.97;;
80891;SDS011;70343;51.530;5.050;2024-03-17T00:40:16;8.07;;;4.20;;
80891;SDS011;70343;51.530;5.050;2024-03-17T00:42:42;7.20;;;4.95;;
80891;SDS011;70343;51.530;5.050;2024-03-17T00:45:10;8.13;;;4.97;;
80891;SDS011;70343;51.530;5.050;2024-03-17T00:47:36;7.63;;;4.75;;
80891;SDS011;70343;51.530;5.050;2024-03-17T00:50:03;9.32;;;5.43;;
80891;SDS011;70343;51.530;5.050;2024-03-17T00:52:33;6.05;;;4.63;;
80891;SDS011;70343;51.530;5.050;2024-03-17T00:54:59;6.55;;;4.30;;
80891;SDS011;70343;51.530;5.050;2024-03-17T00:57:24;7.53;;;5.03;;
80891;SDS011;70343;51.530;5.050;2024-03-17T00:59:50;7.93;;;4.82;;
80891;SDS011;70343;51.530;5.050;2024-03-17T01:02:16;7.97;;;4.85;;
80891;SDS011;70343;51.530;5.050;2024-03-17T01:04:41;9.05;;;4.72;;
80891;SDS011;70343;51.530;5.050;2024-03-17T01:07:08;7.53;;;4.40;;
80891;SDS011;70343;51.530;5.050;2024-03-17T01:09:34;8.48;;;5.30;;
80891;SDS011;70343;51.530;5.050;2024-03-17T01:12:00;9.15;;;4.53;;
80891;SDS011;70343;51.530;5.050;2024-03-17T01:14:26;11.10;;;5.15;;
80891;SDS011;70343;51.530;5.050;2024-03-17T01:16:52;7.75;;;5.63;;
80891;SDS011;70343;51.530;5.050;2024-03-17T01:19:18;8.70;;;5.15;;
80891;SDS011;70343;51.530;5.050;2024-03-17T01:21:43;7.00;;;5.30;;
80891;SDS011;70343;51.530;5.050;2024-03-17T01:24:09;8.27;;;4.50;;
80891;SDS011;70343;51.530;5.050;2024-03-17T01:26:34;8.95;;;5.50;;
80891;SDS011;70343;51.530;5.050;2024-03-17T01:29:00;8.77;;;4.95;;
80891;SDS011;70343;51.530;5.050;2024-03-17T01:31:27;7.93;;;5.38;;
80891;SDS011;70343;51.530;5.050;2024-03-17T01:33:52;8.35;;;5.28;;
80891;SDS011;70343;51.530;5.050;2024-03-17T01:36:18;10.43;;;5.68;;
80891;SDS011;70343;51.530;5.050;2024-03-17T01:38:43;9.82;;;6.07;;
80891;SDS011;70343;51.530;5.050;2024-03-17T01:41:09;12.55;;;5.97;;
80891;SDS011;70343;51.530;5.050;2024-03-17T01:43:35;8.65;;;5.90;;
80891;SDS011;70343;51.530;5.050;2024-03-17T01:46:00;8.40;;;6.28;;
80891;SDS011;70343;51.530;5.050;2024-03-17T01:48:27;10.10;;;5.72;;
80891;SDS011;70343;51.530;5.050;2024-03-17T01:50:55;9.25;;;5.85;;
80891;SDS011;70343;51.530;5.050;2024-03-17T01:53:21;11.02;;;5.75;;
80891;SDS011;70343;51.530;5.050;2024-03-17T01:55:50;8.93;;;6.25;;
80891;SDS011;70343;51.530;5.050;2024-03-17T01:58:17;9.98;;;6.15;;
80891;SDS011;70343;51.530;5.050;2024-03-17T02:00:45;13.02;;;5.97;;
80891;SDS011;70343;51.530;5.050;2024-03-17T02:03:11;7.47;;;5.35;;
80891;SDS011;70343;51.530;5.050;2024-03-17T02:05:38;10.80;;;6.95;;
80891;SDS011;70343;51.530;5.050;2024-03-17T02:08:07;11.23;;;6.38;;
80891;SDS011;70343;51.530;5.050;2024-03-17T02:10:33;11.48;;;6.40;;
80891;SDS011;70343;51.530;5.050;2024-03-17T02:12:59;11.30;;;6.93;;
80891;SDS011;70343;51.530;5.050;2024-03-17T02:15:26;9.88;;;6.85;;
80891;SDS011;70343;51.530;5.050;2024-03-17T02:17:51;11.38;;;5.88;;
80891;SDS011;70343;51.530;5.050;2024-03-17T02:20:17;8.60;;;5.47;;
80891;SDS011;70343;51.530;5.050;2024-03-17T02:22:43;10.05;;;6.65;;
80891;SDS011;70343;51.530;5.050;2024-03-17T02:25:08;11.20;;;5.70;;
80891;SDS011;70343;51.530;5.050;2024-03-17T02:27:35;11.07;;;6.78;;
80891;SDS011;70343;51.530;5.050;2024-03-17T02:30:01;10.27;;;5.85;;
80891;SDS011;70343;51.530;5.050;2024-03-17T02:32:27;9.43;;;6.40;;
80891;SDS011;70343;51.530;5.050;2024-03-17T02:34:53;11.93;;;5.65;;
80891;SDS011;70343;51.530;5.050;2024-03-17T02:37:18;8.65;;;5.18;;
80891;SDS011;70343;51.530;5.050;2024-03-17T02:39:44;10.43;;;6.20;;
80891;SDS011;70343;51.530;5.050;2024-03-17T02:42:10;12.25;;;6.65;;
80891;SDS011;70343;51.530;5.050;2024-03-17T02:44:37;13.65;;;6.35;;
80891;SDS011;70343;51.530;5.050;2024-03-17T02:47:05;9.32;;;6.03;;
80891;SDS011;70343;51.530;5.050;2024-03-17T02:49:33;9.90;;;6.03;;
80891;SDS011;70343;51.530;5.050;2024-03-17T02:52:06;8.40;;;6.05;;
80891;SDS011;70343;51.530;5.050;2024-03-17T02:54:35;10.65;;;5.53;;
80891;SDS011;70343;51.530;5.050;2024-03-17T02:57:05;10.10;;;5.68;;
80891;SDS011;70343;51.530;5.050;2024-03-17T02:59:31;7.93;;;5.43;;
80891;SDS011;70343;51.530;5.050;2024-03-17T03:01:58;8.52;;;5.22;;
80891;SDS011;70343;51.530;5.050;2024-03-17T03:04:24;11.52;;;5.75;;
80891;SDS011;70343;51.530;5.050;2024-03-17T03:06:50;11.50;;;6.28;;
80891;SDS011;70343;51.530;5.050;2024-03-17T03:09:15;10.45;;;6.35;;
80891;SDS011;70343;51.530;5.050;2024-03-17T03:11:51;9.63;;;5.43;;
80891;SDS011;70343;51.530;5.050;2024-03-17T03:14:19;14.23;;;6.18;;
80891;SDS011;70343;51.530;5.050;2024-03-17T03:16:44;8.32;;;5.78;;
80891;SDS011;70343;51.530;5.050;2024-03-17T03:19:10;8.77;;;5.78;;
80891;SDS011;70343;51.530;5.050;2024-03-17T03:21:35;9.02;;;5.68;;
80891;SDS011;70343;51.530;5.050;2024-03-17T03:24:01;11.07;;;5.75;;
80891;SDS011;70343;51.530;5.050;2024-03-17T03:26:26;9.57;;;5.70;;
80891;SDS011;70343;51.530;5.050;2024-03-17T03:28:53;11.50;;;5.80;;
80891;SDS011;70343;51.530;5.050;2024-03-17T03:31:20;10.82;;;6.45;;
80891;SDS011;70343;51.530;5.050;2024-03-17T03:33:46;10.10;;;6.55;;
80891;SDS011;70343;51.530;5.050;2024-03-17T03:36:13;8.73;;;6.30;;
80891;SDS011;70343;51.530;5.050;2024-03-17T03:38:39;10.18;;;5.93;;
80891;SDS011;70343;51.530;5.050;2024-03-17T03:41:09;12.45;;;6.68;;
80891;SDS011;70343;51.530;5.050;2024-03-17T03:43:35;11.80;;;6.03;;
80891;SDS011;70343;51.530;5.050;2024-03-17T03:46:01;9.73;;;5.43;;
80891;SDS011;70343;51.530;5.050;2024-03-17T03:48:27;12.68;;;6.53;;
80891;SDS011;70343;51.530;5.050;2024-03-17T03:50:52;9.15;;;5.65;;
80891;SDS011;70343;51.530;5.050;2024-03-17T03:53:19;10.00;;;6.38;;
80891;SDS011;70343;51.530;5.050;2024-03-17T03:55:45;9.43;;;6.13;;
80891;SDS011;70343;51.530;5.050;2024-03-17T03:58:11;8.57;;;5.78;;
80891;SDS011;70343;51.530;5.050;2024-03-17T04:00:38;11.63;;;6.70;;
80891;SDS011;70343;51.530;5.050;2024-03-17T04:03:04;10.45;;;6.03;;
80891;SDS011;70343;51.530;5.050;2024-03-17T04:05:30;8.52;;;6.13;;
80891;SDS011;70343;51.530;5.050;2024-03-17T04:07:56;10.60;;;5.97;;
80891;SDS011;70343;51.530;5.050;2024-03-17T04:10:21;11.82;;;6.40;;
80891;SDS011;70343;51.530;5.050;2024-03-17T04:12:47;8.18;;;5.75;;
80891;SDS011;70343;51.530;5.050;2024-03-17T04:15:13;9.20;;;5.78;;
80891;SDS011;70343;51.530;5.050;2024-03-17T04:17:39;10.68;;;5.38;;
80891;SDS011;70343;51.530;5.050;2024-03-17T04:20:05;8.55;;;5.40;;
80891;SDS011;70343;51.530;5.050;2024-03-17T04:22:33;9.75;;;5.90;;
80891;SDS011;70343;51.530;5.050;2024-03-17T04:24:59;8.90;;;6.38;;
80891;SDS011;70343;51.530;5.050;2024-03-17T04:27:24;11.75;;;6.25;;
80891;SDS011;70343;51.530;5.050;2024-03-17T04:29:52;12.85;;;6.70;;
80891;SDS011;70343;51.530;5.050;2024-03-17T04:32:21;12.63;;;6.63;;
80891;SDS011;70343;51.530;5.050;2024-03-17T04:34:48;11.05;;;6.00;;
80891;SDS011;70343;51.530;5.050;2024-03-17T04:37:13;13.55;;;6.57;;
80891;SDS011;70343;51.530;5.050;2024-03-17T04:39:39;11.13;;;6.32;;
80891;SDS011;70343;51.530;5.050;2024-03-17T04:42:07;10.80;;;6.75;;
80891;SDS011;70343;51.530;5.050;2024-03-17T04:44:32;10.18;;;6.20;;
80891;SDS011;70343;51.530;5.050;2024-03-17T04:46:58;11.50;;;7.00;;
80891;SDS011;70343;51.530;5.050;2024-03-17T04:49:23;9.88;;;6.70;;
80891;SDS011;70343;51.530;5.050;2024-03-17T04:51:49;10.73;;;6.20;;
80891;SDS011;70343;51.530;5.050;2024-03-17T04:54:15;10.27;;;6.40;;
80891;SDS011;70343;51.530;5.050;2024-03-17T04:56:40;10.35;;;6.55;;
80891;SDS011;70343;51.530;5.050;2024-03-17T04:59:05;11.15;;;6.28;;
80891;SDS011;70343;51.530;5.050;2024-03-17T05:01:31;9.20;;;5.90;;
80891;SDS011;70343;51.530;5.050;2024-03-17T05:04:01;11.45;;;6.03;;
80891;SDS011;70343;51.530;5.050;2024-03-17T05:06:30;10.48;;;5.88;;
80891;SDS011;70343;51.530;5.050;2024-03-17T05:08:56;11.90;;;6.60;;
80891;SDS011;70343;51.530;5.050;2024-03-17T05:11:21;8.68;;;5.97;;
80891;SDS011;70343;51.530;5.050;2024-03-17T05:13:49;9.18;;;5.97;;
80891;SDS011;70343;51.530;5.050;2024-03-17T05:16:14;10.10;;;6.40;;
80891;SDS011;70343;51.530;5.050;2024-03-17T05:18:40;11.25;;;6.32;;
80891;SDS011;70343;51.530;5.050;2024-03-17T05:21:06;11.57;;;6.80;;
80891;SDS011;70343;51.530;5.050;2024-03-17T05:23:36;9.07;;;5.70;;
80891;SDS011;70343;51.530;5.050;2024-03-17T05:26:02;9.85;;;5.93;;
80891;SDS011;70343;51.530;5.050;2024-03-17T05:28:31;9.05;;;5.68;;
80891;SDS011;70343;51.530;5.050;2024-03-17T05:30:57;15.55;;;6.22;;
80891;SDS011;70343;51.530;5.050;2024-03-17T05:33:24;9.40;;;5.75;;
80891;SDS011;70343;51.530;5.050;2024-03-17T05:35:51;10.55;;;6.97;;
80891;SDS011;70343;51.530;5.050;2024-03-17T05:38:19;8.32;;;5.82;;
80891;SDS011;70343;51.530;5.050;2024-03-17T05:40:56;11.05;;;6.47;;
80891;SDS011;70343;51.530;5.050;2024-03-17T05:43:25;14.82;;;5.85;;
80891;SDS011;70343;51.530;5.050;2024-03-17T05:45:52;9.18;;;5.53;;
80891;SDS011;70343;51.530;5.050;2024-03-17T05:48:18;9.93;;;5.70;;
80891;SDS011;70343;51.530;5.050;2024-03-17T05:50:45;12.82;;;6.25;;
80891;SDS011;70343;51.530;5.050;2024-03-17T05:53:10;9.10;;;5.45;;
80891;SDS011;70343;51.530;5.050;2024-03-17T05:55:36;11.40;;;6.45;;
80891;SDS011;70343;51.530;5.050;2024-03-17T05:58:02;7.85;;;5.22;;
80891;SDS011;70343;51.530;5.050;2024-03-17T06:00:28;10.05;;;6.10;;
80891;SDS011;70343;51.530;5.050;2024-03-17T06:02:55;8.18;;;5.75;;
80891;SDS011;70343;51.530;5.050;2024-03-17T06:05:21;9.57;;;5.78;;
80891;SDS011;70343;51.530;5.050;2024-03-17T06:07:48;10.70;;;5.85;;
80891;SDS011;70343;51.530;5.050;2024-03-17T06:10:13;9.32;;;5.70;;
80891;SDS011;70343;51.530;5.050;2024-03-17T06:12:39;8.15;;;5.78;;
80891;SDS011;70343;51.530;5.050;2024-03-17T06:15:05;10.98;;;6.07;;
80891;SDS011;70343;51.530;5.050;2024-03-17T06:17:31;8.57;;;5.40;;
80891;SDS011;70343;51.530;5.050;2024-03-17T06:19:57;9.13;;;5.80;;
80891;SDS011;70343;51.530;5.050;2024-03-17T06:22:22;10.27;;;6.10;;
80891;SDS011;70343;51.530;5.050;2024-03-17T06:24:49;8.95;;;5.72;;
80891;SDS011;70343;51.530;5.050;2024-03-17T06:27:15;9.45;;;4.70;;
80891;SDS011;70343;51.530;5.050;2024-03-17T06:29:41;8.45;;;5.00;;
80891;SDS011;70343;51.530;5.050;2024-03-17T06:32:08;11.35;;;5.85;;
80891;SDS011;70343;51.530;5.050;2024-03-17T06:34:33;9.60;;;5.68;;
80891;SDS011;70343;51.530;5.050;2024-03-17T06:36:59;11.20;;;6.28;;
80891;SDS011;70343;51.530;5.050;2024-03-17T06:39:25;8.07;;;5.60;;
80891;SDS011;70343;51.530;5.050;2024-03-17T06:41:51;10.93;;;6.13;;
80891;SDS011;70343;51.530;5.050;2024-03-17T06:44:16;11.13;;;6.45;;
80891;SDS011;70343;51.530;5.050;2024-03-17T06:46:42;9.55;;;5.47;;
80891;SDS011;70343;51.530;5.050;2024-03-17T06:49:09;9.55;;;5.97;;
80891;SDS011;70343;51.530;5.050;2024-03-17T06:51:34;10.05;;;5.78;;
80891;SDS011;70343;51.530;5.050;2024-03-17T06:54:00;7.50;;;5.90;;
80891;SDS011;70343;51.530;5.050;2024-03-17T06:56:26;7.53;;;5.20;;
80891;SDS011;70343;51.530;5.050;2024-03-17T06:58:51;7.97;;;6.32;;
80891;SDS011;70343;51.530;5.050;2024-03-17T07:01:17;10.90;;;5.95;;
80891;SDS011;70343;51.530;5.050;2024-03-17T07:03:42;9.65;;;6.13;;
80891;SDS011;70343;51.530;5.050;2024-03-17T07:06:09;9.38;;;5.35;;
80891;SDS011;70343;51.530;5.050;2024-03-17T07:08:35;7.10;;;5.47;;
80891;SDS011;70343;51.530;5.050;2024-03-17T07:11:04;6.90;;;5.30;;
80891;SDS011;70343;51.530;5.050;2024-03-17T07:13:31;8.30;;;4.78;;
80891;SDS011;70343;51.530;5.050;2024-03-17T07:16:01;9.13;;;5.07;;
80891;SDS011;70343;51.530;5.050;2024-03-17T07:18:28;8.75;;;5.32;;
80891;SDS011;70343;51.530;5.050;2024-03-17T07:20:57;7.78;;;4.63;;
80891;SDS011;70343;51.530;5.050;2024-03-17T07:23:29;7.10;;;4.72;;
80891;SDS011;70343;51.530;5.050;2024-03-17T07:25:56;7.40;;;5.07;;
80891;SDS011;70343;51.530;5.050;2024-03-17T07:28:23;6.72;;;5.28;;
80891;SDS011;70343;51.530;5.050;2024-03-17T07:30:52;9.73;;;5.50;;
80891;SDS011;70343;51.530;5.050;2024-03-17T07:33:19;5.72;;;4.75;;
80891;SDS011;70343;51.530;5.050;2024-03-17T07:35:55;8.95;;;4.53;;
80891;SDS011;70343;51.530;5.050;2024-03-17T07:38:23;4.28;;;3.45;;
80891;SDS011;70343;51.530;5.050;2024-03-17T07:43:25;8.18;;;4.22;;
80891;SDS011;70343;51.530;5.050;2024-03-17T07:48:36;6.38;;;4.20;;
80891;SDS011;70343;51.530;5.050;2024-03-17T07:51:06;6.18;;;4.55;;
80891;SDS011;70343;51.530;5.050;2024-03-17T07:53:37;6.03;;;4.85;;
80891;SDS011;70343;51.530;5.050;2024-03-17T07:56:04;6.65;;;3.95;;
80891;SDS011;70343;51.530;5.050;2024-03-17T07:58:30;9.50;;;5.20;;
80891;SDS011;70343;51.530;5.050;2024-03-17T08:01:01;8.10;;;4.20;;
80891;SDS011;70343;51.530;5.050;2024-03-17T08:03:32;8.00;;;5.10;;
80891;SDS011;70343;51.530;5.050;2024-03-17T08:05:59;6.68;;;4.38;;
80891;SDS011;70343;51.530;5.050;2024-03-17T08:08:25;8.27;;;5.10;;
80891;SDS011;70343;51.530;5.050;2024-03-17T08:10:51;8.60;;;4.85;;
80891;SDS011;70343;51.530;5.050;2024-03-17T08:13:17;8.00;;;5.15;;
80891;SDS011;70343;51.530;5.050;2024-03-17T08:15:43;7.93;;;4.65;;
80891;SDS011;70343;51.530;5.050;2024-03-17T08:18:13;5.18;;;4.22;;
80891;SDS011;70343;51.530;5.050;2024-03-17T08:20:38;5.70;;;4.15;;
80891;SDS011;70343;51.530;5.050;2024-03-17T08:23:05;9.05;;;4.90;;
80891;SDS011;70343;51.530;5.050;2024-03-17T08:25:32;8.27;;;4.88;;
80891;SDS011;70343;51.530;5.050;2024-03-17T08:30:26;6.57;;;4.50;;
80891;SDS011;70343;51.530;5.050;2024-03-17T08:32:52;9.02;;;4.70;;
80891;SDS011;70343;51.530;5.050;2024-03-17T08:35:17;8.00;;;4.43;;
80891;SDS011;70343;51.530;5.050;2024-03-17T08:37:43;6.97;;;4.97;;
80891;SDS011;70343;51.530;5.050;2024-03-17T08:40:10;6.45;;;4.43;;
80891;SDS011;70343;51.530;5.050;2024-03-17T08:42:36;5.40;;;4.57;;
80891;SDS011;70343;51.530;5.050;2024-03-17T08:45:01;7.00;;;5.05;;
80891;SDS011;70343;51.530;5.050;2024-03-17T08:47:28;7.85;;;5.38;;
80891;SDS011;70343;51.530;5.050;2024-03-17T08:49:54;7.25;;;4.57;;
80891;SDS011;70343;51.530;5.050;2024-03-17T08:52:19;7.65;;;4.70;;
80891;SDS011;70343;51.530;5.050;2024-03-17T08:54:46;8.02;;;4.60;;
80891;SDS011;70343;51.530;5.050;2024-03-17T08:57:12;8.48;;;4.72;;
80891;SDS011;70343;51.530;5.050;2024-03-17T08:59:38;11.18;;;5.45;;
80891;SDS011;70343;51.530;5.050;2024-03-17T09:02:03;7.07;;;5.43;;
80891;SDS011;70343;51.530;5.050;2024-03-17T09:04:29;9.80;;;5.05;;
80891;SDS011;70343;51.530;5.050;2024-03-17T09:06:54;9.30;;;4.40;;
80891;SDS011;70343;51.530;5.050;2024-03-17T09:09:21;7.28;;;4.63;;
80891;SDS011;70343;51.530;5.050;2024-03-17T09:11:47;7.00;;;4.70;;
80891;SDS011;70343;51.530;5.050;2024-03-17T09:14:13;5.93;;;4.07;;
80891;SDS011;70343;51.530;5.050;2024-03-17T09:16:38;6.10;;;4.45;;
80891;SDS011;70343;51.530;5.050;2024-03-17T09:19:04;8.48;;;4.05;;
80891;SDS011;70343;51.530;5.050;2024-03-17T09:21:29;5.45;;;4.05;;
80891;SDS011;70343;51.530;5.050;2024-03-17T09:23:55;6.15;;;3.95;;
80891;SDS011;70343;51.530;5.050;2024-03-17T09:26:20;6.90;;;4.00;;
80891;SDS011;70343;51.530;5.050;2024-03-17T09:28:45;5.20;;;3.45;;
80891;SDS011;70343;51.530;5.050;2024-03-17T09:31:11;6.90;;;3.72;;
80891;SDS011;70343;51.530;5.050;2024-03-17T09:33:37;5.20;;;4.07;;
80891;SDS011;70343;51.530;5.050;2024-03-17T09:36:07;6.82;;;3.47;;
80891;SDS011;70343;51.530;5.050;2024-03-17T09:38:33;6.45;;;3.25;;
80891;SDS011;70343;51.530;5.050;2024-03-17T09:41:00;5.78;;;3.88;;
80891;SDS011;70343;51.530;5.050;2024-03-17T09:43:27;5.13;;;4.05;;
80891;SDS011;70343;51.530;5.050;2024-03-17T09:46:01;6.05;;;3.97;;
80891;SDS011;70343;51.530;5.050;2024-03-17T09:48:30;5.95;;;4.13;;
80891;SDS011;70343;51.530;5.050;2024-03-17T09:51:00;4.43;;;3.38;;
80891;SDS011;70343;51.530;5.050;2024-03-17T09:53:27;5.20;;;3.53;;
80891;SDS011;70343;51.530;5.050;2024-03-17T09:55:58;6.10;;;3.78;;
80891;SDS011;70343;51.530;5.050;2024-03-17T09:58:24;6.70;;;4.28;;
80891;SDS011;70343;51.530;5.050;2024-03-17T10:00:49;4.63;;;3.28;;
80891;SDS011;70343;51.530;5.050;2024-03-17T10:06:13;7.10;;;3.13;;
80891;SDS011;70343;51.530;5.050;2024-03-17T10:08:59;4.88;;;3.53;;
80891;SDS011;70343;51.530;5.050;2024-03-17T10:11:35;5.88;;;3.50;;
80891;SDS011;70343;51.530;5.050;2024-03-17T10:14:05;6.70;;;3.53;;
80891;SDS011;70343;51.530;5.050;2024-03-17T10:16:33;5.38;;;3.33;;
80891;SDS011;70343;51.530;5.050;2024-03-17T10:19:15;5.32;;;3.45;;
80891;SDS011;70343;51.530;5.050;2024-03-17T10:21:48;4.15;;;3.10;;
80891;SDS011;70343;51.530;5.050;2024-03-17T10:24:20;4.30;;;3.10;;
80891;SDS011;70343;51.530;5.050;2024-03-17T10:26:47;4.60;;;3.42;;
80891;SDS011;70343;51.530;5.050;2024-03-17T10:31:49;4.90;;;2.95;;
80891;SDS011;70343;51.530;5.050;2024-03-17T10:34:25;5.70;;;3.30;;
80891;SDS011;70343;51.530;5.050;2024-03-17T10:39:48;5.00;;;3.17;;
80891;SDS011;70343;51.530;5.050;2024-03-17T10:42:28;7.93;;;3.40;;
80891;SDS011;70343;51.530;5.050;2024-03-17T10:44:54;6.63;;;3.40;;
80891;SDS011;70343;51.530;5.050;2024-03-17T10:47:25;7.70;;;3.78;;
80891;SDS011;70343;51.530;5.050;2024-03-17T10:49:52;6.35;;;3.85;;
80891;SDS011;70343;51.530;5.050;2024-03-17T10:52:20;5.00;;;3.90;;
80891;SDS011;70343;51.530;5.050;2024-03-17T10:54:48;5.78;;;3.47;;
80891;SDS011;70343;51.530;5.050;2024-03-17T10:59:59;7.93;;;3.70;;
80891;SDS011;70343;51.530;5.050;2024-03-17T11:02:29;5.38;;;3.72;;
80891;SDS011;70343;51.530;5.050;2024-03-17T11:05:01;6.40;;;3.60;;
80891;SDS011;70343;51.530;5.050;2024-03-17T11:07:28;6.28;;;4.22;;
80891;SDS011;70343;51.530;5.050;2024-03-17T11:09:56;8.35;;;3.50;;
80891;SDS011;70343;51.530;5.050;2024-03-17T11:12:43;6.97;;;3.00;;
80891;SDS011;70343;51.530;5.050;2024-03-17T11:17:45;5.05;;;3.50;;
80891;SDS011;70343;51.530;5.050;2024-03-17T11:20:15;5.80;;;3.67;;
80891;SDS011;70343;51.530;5.050;2024-03-17T11:22:44;7.57;;;4.35;;
80891;SDS011;70343;51.530;5.050;2024-03-17T11:27:51;8.07;;;3.63;;
80891;SDS011;70343;51.530;5.050;2024-03-17T11:44:14;5.45;;;2.88;;
80891;SDS011;70343;51.530;5.050;2024-03-17T11:46:41;4.68;;;3.03;;
80891;SDS011;70343;51.530;5.050;2024-03-17T11:49:20;8.00;;;3.13;;
80891;SDS011;70343;51.530;5.050;2024-03-17T11:51:52;6.53;;;3.10;;
80891;SDS011;70343;51.530;5.050;2024-03-17T11:54:19;4.45;;;2.85;;
80891;SDS011;70343;51.530;5.050;2024-03-17T11:56:50;5.22;;;3.70;;
80891;SDS011;70343;51.530;5.050;2024-03-17T11:59:17;6.05;;;3.15;;
80891;SDS011;70343;51.530;5.050;2024-03-17T12:01:47;5.43;;;4.00;;
80891;SDS011;70343;51.530;5.050;2024-03-17T12:04:14;6.05;;;3.67;;
80891;SDS011;70343;51.530;5.050;2024-03-17T12:06:44;6.35;;;3.40;;
80891;SDS011;70343;51.530;5.050;2024-03-17T12:09:27;11.00;;;3.22;;
80891;SDS011;70343;51.530;5.050;2024-03-17T12:12:04;4.38;;;2.60;;
80891;SDS011;70343;51.530;5.050;2024-03-17T12:14:33;5.20;;;2.70;;
80891;SDS011;70343;51.530;5.050;2024-03-17T12:17:00;3.20;;;2.40;;
80891;SDS011;70343;51.530;5.050;2024-03-17T12:19:28;5.95;;;2.50;;
80891;SDS011;70343;51.530;5.050;2024-03-17T12:21:55;5.05;;;2.60;;
80891;SDS011;70343;51.530;5.050;2024-03-17T12:24:22;8.00;;;2.70;;
80891;SDS011;70343;51.530;5.050;2024-03-17T12:26:49;3.92;;;2.10;;
80891;SDS011;70343;51.530;5.050;2024-03-17T12:29:28;6.18;;;2.70;;
80891;SDS011;70343;51.530;5.050;2024-03-17T12:32:16;4.57;;;2.30;;
80891;SDS011;70343;51.530;5.050;2024-03-17T12:34:43;3.65;;;2.35;;
80891;SDS011;70343;51.530;5.050;2024-03-17T12:37:15;5.43;;;2.70;;
80891;SDS011;70343;51.530;5.050;2024-03-17T12:39:43;5.18;;;2.17;;
80891;SDS011;70343;51.530;5.050;2024-03-17T12:44:50;4.75;;;2.13;;
80891;SDS011;70343;51.530;5.050;2024-03-17T12:47:16;6.28;;;2.38;;
80891;SDS011;70343;51.530;5.050;2024-03-17T12:49:47;5.70;;;2.30;;
80891;SDS011;70343;51.530;5.050;2024-03-17T12:52:18;6.35;;;2.80;;
80891;SDS011;70343;51.530;5.050;2024-03-17T12:57:44;6.57;;;2.33;;
80891;SDS011;70343;51.530;5.050;2024-03-17T13:00:29;6.65;;;2.30;;
80891;SDS011;70343;51.530;5.050;2024-03-17T13:02:59;3.80;;;2.22;;
80891;SDS011;70343;51.530;5.050;2024-03-17T13:05:26;6.15;;;3.08;;
80891;SDS011;70343;51.530;5.050;2024-03-17T13:07:52;6.43;;;2.42;;
80891;SDS011;70343;51.530;5.050;2024-03-17T13:10:20;3.80;;;2.42;;
80891;SDS011;70343;51.530;5.050;2024-03-17T13:12:46;5.07;;;2.60;;
80891;SDS011;70343;51.530;5.050;2024-03-17T13:15:16;3.72;;;2.38;;
80891;SDS011;70343;51.530;5.050;2024-03-17T13:17:43;5.05;;;2.33;;
80891;SDS011;70343;51.530;5.050;2024-03-17T13:20:16;4.05;;;2.65;;
80891;SDS011;70343;51.530;5.050;2024-03-17T13:22:42;4.25;;;2.30;;
80891;SDS011;70343;51.530;5.050;2024-03-17T13:25:13;5.70;;;2.83;;
80891;SDS011;70343;51.530;5.050;2024-03-17T13:27:44;3.72;;;2.20;;
80891;SDS011;70343;51.530;5.050;2024-03-17T13:30:16;5.07;;;2.10;;
80891;SDS011;70343;51.530;5.050;2024-03-17T13:32:44;4.97;;;2.25;;
80891;SDS011;70343;51.530;5.050;2024-03-17T13:35:16;3.70;;;2.22;;
80891;SDS011;70343;51.530;5.050;2024-03-17T13:37:46;3.58;;;2.42;;
80891;SDS011;70343;51.530;5.050;2024-03-17T13:40:20;3.88;;;2.03;;
80891;SDS011;70343;51.530;5.050;2024-03-17T13:42:47;5.20;;;2.10;;
80891;SDS011;70343;51.530;5.050;2024-03-17T13:45:14;6.00;;;2.00;;
80891;SDS011;70343;51.530;5.050;2024-03-17T13:47:41;3.35;;;1.60;;
80891;SDS011;70343;51.530;5.050;2024-03-17T13:50:10;3.33;;;1.92;;
80891;SDS011;70343;51.530;5.050;2024-03-17T13:52:39;4.55;;;2.05;;
80891;SDS011;70343;51.530;5.050;2024-03-17T13:55:05;2.88;;;1.98;;
80891;SDS011;70343;51.530;5.050;2024-03-17T13:57:36;3.22;;;2.05;;
80891;SDS011;70343;51.530;5.050;2024-03-17T14:00:02;3.00;;;2.00;;
80891;SDS011;70343;51.530;5.050;2024-03-17T14:02:37;2.47;;;1.58;;
80891;SDS011;70343;51.530;5.050;2024-03-17T14:05:02;5.18;;;2.55;;
80891;SDS011;70343;51.530;5.050;2024-03-17T14:07:32;3.42;;;1.80;;
80891;SDS011;70343;51.530;5.050;2024-03-17T14:09:59;3.15;;;1.23;;
80891;SDS011;70343;51.530;5.050;2024-03-17T14:12:24;2.08;;;1.50;;
80891;SDS011;70343;51.530;5.050;2024-03-17T14:14:51;2.47;;;1.70;;
80891;SDS011;70343;51.530;5.050;2024-03-17T14:17:16;4.57;;;1.60;;
80891;SDS011;70343;51.530;5.050;2024-03-17T14:19:42;2.13;;;1.40;;
80891;SDS011;70343;51.530;5.050;2024-03-17T14:22:08;2.38;;;1.52;;
80891;SDS011;70343;51.530;5.050;2024-03-17T14:24:33;4.05;;;2.40;;
80891;SDS011;70343;51.530;5.050;2024-03-17T14:27:00;2.50;;;1.58;;
80891;SDS011;70343;51.530;5.050;2024-03-17T14:29:25;3.33;;;1.23;;
80891;SDS011;70343;51.530;5.050;2024-03-17T14:31:51;3.28;;;1.70;;
80891;SDS011;70343;51.530;5.050;2024-03-17T14:34:17;3.13;;;1.70;;
80891;SDS011;70343;51.530;5.050;2024-03-17T14:36:42;1.33;;;1.23;;
80891;SDS011;70343;51.530;5.050;2024-03-17T14:39:08;2.88;;;1.77;;
80891;SDS011;70343;51.530;5.050;2024-03-17T14:41:33;5.53;;;1.88;;
80891;SDS011;70343;51.530;5.050;2024-03-17T14:43:59;2.45;;;1.90;;
80891;SDS011;70343;51.530;5.050;2024-03-17T14:46:25;3.92;;;2.00;;
80891;SDS011;70343;51.530;5.050;2024-03-17T14:48:52;3.20;;;1.65;;
80891;SDS011;70343;51.530;5.050;2024-03-17T14:51:18;5.63;;;1.55;;
80891;SDS011;70343;51.530;5.050;2024-03-17T14:53:46;3.55;;;1.85;;
80891;SDS011;70343;51.530;5.050;2024-03-17T14:56:16;3.75;;;2.17;;
80891;SDS011;70343;51.530;5.050;2024-03-17T14:58:42;4.43;;;1.85;;
80891;SDS011;70343;51.530;5.050;2024-03-17T15:01:09;4.38;;;1.83;;
80891;SDS011;70343;51.530;5.050;2024-03-17T15:03:36;2.50;;;1.30;;
80891;SDS011;70343;51.530;5.050;2024-03-17T15:06:01;3.10;;;1.52;;
80891;SDS011;70343;51.530;5.050;2024-03-17T15:08:29;5.30;;;1.58;;
80891;SDS011;70343;51.530;5.050;2024-03-17T15:10:55;2.58;;;1.50;;
80891;SDS011;70343;51.530;5.050;2024-03-17T15:13:21;2.78;;;1.50;;
80891;SDS011;70343;51.530;5.050;2024-03-17T15:15:48;4.38;;;1.60;;
80891;SDS011;70343;51.530;5.050;2024-03-17T15:18:14;3.13;;;1.70;;
80891;SDS011;70343;51.530;5.050;2024-03-17T15:20:41;4.50;;;2.30;;
80891;SDS011;70343;51.530;5.050;2024-03-17T15:23:06;3.03;;;2.08;;
80891;SDS011;70343;51.530;5.050;2024-03-17T15:25:32;3.10;;;1.83;;
80891;SDS011;70343;51.530;5.050;2024-03-17T15:27:58;5.25;;;3.38;;
80891;SDS011;70343;51.530;5.050;2024-03-17T15:30:24;2.05;;;1.50;;